createdAt,value
2018-07-10T00:00:31.481Z,60.28
2018-07-10T00:03:16.087Z,59.76
2018-07-10T00:06:04.700Z,60.87
2018-07-10T00:09:08.026Z,61.16
2018-07-10T00:11:41.469Z,61.61
2018-07-10T00:14:14.928Z,61.01
2018-07-10T00:16:48.311Z,61.44
2018-07-10T00:19:21.772Z,62.44
2018-07-10T00:21:55.158Z,62.19
2018-07-10T00:24:28.588Z,62.41
2018-07-10T00:27:02.150Z,62.86
2018-07-10T00:29:35.591Z,62.45
2018-07-10T00:32:08.982Z,62.44
2018-07-10T00:34:42.436Z,62.35
2018-07-10T00:37:15.871Z,62.81
2018-07-10T00:39:49.347Z,63.28
2018-07-10T00:42:22.716Z,63.00
2018-07-10T00:44:56.136Z,63.06
2018-07-10T00:47:29.580Z,63.10
2018-07-10T00:50:02.988Z,63.61
2018-07-10T00:52:36.395Z,63.66
2018-07-10T00:55:09.848Z,63.77
2018-07-10T00:57:43.319Z,63.89
2018-07-10T01:00:26.854Z,63.78
2018-07-10T01:03:00.623Z,63.89
2018-07-10T01:05:34.056Z,64.31
2018-07-10T01:08:07.478Z,64.34
2018-07-10T01:10:40.962Z,64.42
2018-07-10T01:13:14.391Z,64.28
2018-07-10T01:15:47.824Z,64.47
2018-07-10T01:18:27.914Z,64.39
2018-07-10T01:21:01.336Z,64.27
2018-07-10T01:23:35.442Z,64.93
2018-07-10T01:26:09.823Z,64.94
2018-07-10T01:28:43.391Z,64.65
2018-07-10T01:31:16.826Z,65.12
2018-07-10T01:33:50.339Z,64.82
2018-07-10T01:36:23.733Z,65.05
2018-07-10T01:38:57.165Z,65.43
2018-07-10T01:41:30.615Z,65.86
2018-07-10T01:44:04.039Z,65.68
2018-07-10T01:46:37.499Z,65.69
2018-07-10T01:49:10.943Z,65.89
2018-07-10T01:51:44.405Z,65.67
2018-07-10T01:54:17.913Z,65.64
2018-07-10T01:56:51.351Z,65.88
2018-07-10T01:59:24.812Z,66.10
2018-07-10T02:01:58.294Z,66.12
2018-07-10T02:04:31.735Z,65.74
2018-07-10T02:07:05.507Z,66.15
2018-07-10T02:09:38.929Z,65.93
2018-07-10T02:12:12.422Z,65.62
2018-07-10T02:14:45.867Z,65.84
2018-07-10T02:17:19.351Z,65.96
2018-07-10T02:19:52.772Z,65.96
2018-07-10T02:22:26.220Z,66.07
2018-07-10T02:24:59.703Z,65.69
2018-07-10T02:27:33.152Z,66.03
2018-07-10T02:30:06.672Z,66.20
2018-07-10T02:32:40.090Z,66.10
2018-07-10T02:35:14.086Z,66.33
2018-07-10T02:37:50.209Z,66.76
2018-07-10T02:40:23.636Z,66.33
2018-07-10T02:42:57.071Z,66.31
2018-07-10T02:45:30.491Z,66.67
2018-07-10T02:48:03.939Z,66.54
2018-07-10T02:50:37.358Z,66.36
2018-07-10T02:53:10.789Z,66.43
2018-07-10T02:55:45.310Z,66.89
2018-07-10T02:58:18.781Z,66.71
2018-07-10T03:00:52.176Z,66.76
2018-07-10T03:03:25.720Z,66.55
2018-07-10T03:05:59.139Z,67.02
2018-07-10T03:08:32.576Z,67.19
2018-07-10T03:11:06.367Z,67.28
2018-07-10T03:13:40.655Z,67.20
2018-07-10T03:16:14.067Z,67.33
2018-07-10T03:18:47.792Z,67.12
2018-07-10T03:21:21.223Z,67.21
2018-07-10T03:23:54.640Z,67.02
2018-07-10T03:26:28.039Z,67.22
2018-07-10T03:29:01.461Z,67.56
2018-07-10T03:31:34.890Z,67.43
2018-07-10T03:34:08.350Z,67.01
2018-07-10T03:36:42.059Z,67.49
2018-07-10T03:39:15.491Z,67.44
2018-07-10T03:41:48.964Z,67.47
2018-07-10T03:44:22.434Z,67.26
2018-07-10T03:46:57.966Z,67.23
2018-07-10T03:49:31.452Z,67.40
2018-07-10T03:52:10.000Z,67.45
2018-07-10T03:54:45.515Z,67.67
2018-07-10T03:57:18.937Z,67.94
2018-07-10T03:59:55.864Z,67.73
2018-07-10T04:02:29.270Z,67.79
2018-07-10T04:05:03.516Z,68.00
2018-07-10T04:07:36.930Z,67.86
2018-07-10T04:10:12.169Z,67.88
2018-07-10T04:12:47.638Z,67.61
2018-07-10T04:15:21.099Z,67.72
2018-07-10T04:17:58.660Z,68.28
2018-07-10T04:20:40.726Z,68.48
2018-07-10T04:23:14.154Z,69.21
2018-07-10T04:25:53.804Z,69.17
2018-07-10T04:28:31.191Z,69.81
2018-07-10T04:31:16.391Z,69.59
2018-07-10T04:33:49.974Z,69.33
2018-07-10T04:36:23.610Z,69.81
2018-07-10T04:38:59.077Z,70.26
2018-07-10T04:41:35.188Z,70.24
2018-07-10T04:44:11.912Z,69.85
2018-07-10T04:46:53.227Z,70.12
2018-07-10T04:49:32.041Z,70.57
2018-07-10T04:52:21.166Z,70.26
2018-07-10T04:55:08.813Z,70.25
2018-07-10T04:57:49.365Z,70.50
2018-07-10T05:00:22.852Z,70.45
2018-07-10T05:02:57.526Z,70.35
2018-07-10T05:05:32.587Z,70.37
2018-07-10T05:08:06.215Z,70.46
2018-07-10T05:10:39.674Z,70.42
2018-07-10T05:13:13.763Z,70.44
2018-07-10T05:15:52.434Z,70.30
2018-07-10T05:18:25.912Z,70.43
2018-07-10T05:21:02.126Z,70.39
2018-07-10T05:23:35.532Z,70.71
2018-07-10T05:26:10.897Z,70.58
2018-07-10T05:28:45.173Z,70.80
2018-07-10T05:31:20.386Z,70.53
2018-07-10T05:33:53.851Z,70.05
2018-07-10T05:36:27.308Z,70.52
2018-07-10T05:39:07.051Z,70.61
2018-07-10T05:41:45.152Z,70.67
2018-07-10T05:44:21.128Z,70.95
2018-07-10T05:46:58.376Z,70.86
2018-07-10T05:49:36.977Z,70.94
2018-07-10T05:52:10.479Z,71.20
2018-07-10T05:54:45.467Z,71.57
2018-07-10T05:57:18.930Z,71.86
2018-07-10T05:59:52.346Z,72.23
2018-07-10T06:02:25.865Z,72.69
2018-07-10T06:04:59.279Z,72.42
2018-07-10T06:07:32.763Z,72.86
2018-07-10T06:10:06.589Z,72.95
2018-07-10T06:12:40.113Z,73.19
2018-07-10T06:15:14.424Z,73.36
2018-07-10T06:17:48.312Z,73.28
2018-07-10T06:20:21.740Z,73.30
2018-07-10T06:22:56.630Z,73.49
2018-07-10T06:25:33.439Z,73.55
2018-07-10T06:28:08.826Z,73.53
2018-07-10T06:30:42.633Z,73.54
2018-07-10T06:33:24.835Z,73.44
2018-07-10T06:36:05.642Z,73.45
2018-07-10T06:38:42.591Z,73.13
2018-07-10T06:41:16.117Z,73.45
2018-07-10T06:44:04.472Z,73.70
2018-07-10T06:46:42.879Z,73.95
2018-07-10T06:49:35.806Z,73.91
2018-07-10T06:52:13.685Z,74.08
2018-07-10T06:54:55.572Z,74.37
2018-07-10T06:57:33.628Z,74.60
2018-07-10T07:00:09.360Z,74.44
2018-07-10T07:02:42.833Z,74.21
2018-07-10T07:05:16.271Z,74.58
2018-07-10T07:07:49.805Z,74.79
2018-07-10T07:10:23.827Z,74.60
2018-07-10T07:12:57.274Z,74.60
2018-07-10T07:15:30.755Z,74.57
2018-07-10T07:18:04.171Z,74.58
2018-07-10T07:20:37.615Z,74.85
2018-07-10T07:23:11.041Z,74.70
2018-07-10T07:25:44.497Z,74.97
2018-07-10T07:28:18.005Z,74.72
2018-07-10T07:30:51.443Z,75.02
2018-07-10T07:33:24.905Z,74.94
2018-07-10T07:35:58.305Z,74.51
2018-07-10T07:38:31.740Z,75.02
2018-07-10T07:41:05.188Z,74.80
2018-07-10T07:43:38.680Z,74.87
2018-07-10T07:46:12.172Z,74.70
2018-07-10T07:48:45.663Z,74.69
2018-07-10T07:51:19.078Z,74.72
2018-07-10T07:53:52.594Z,74.79
2018-07-10T07:56:26.038Z,74.75
2018-07-10T07:58:59.440Z,74.34
2018-07-10T08:01:32.901Z,74.48
2018-07-10T08:04:06.407Z,74.40
2018-07-10T08:06:39.857Z,74.58
2018-07-10T08:09:14.267Z,75.04
2018-07-10T08:11:47.719Z,74.57
2018-07-10T08:14:21.238Z,74.67
2018-07-10T08:16:55.086Z,74.26
2018-07-10T08:19:28.518Z,74.43
2018-07-10T08:22:01.973Z,74.48
2018-07-10T08:24:35.469Z,73.97
2018-07-10T08:27:09.025Z,74.13
2018-07-10T08:29:42.561Z,74.19
2018-07-10T08:32:16.028Z,74.21
2018-07-10T08:34:49.533Z,74.01
2018-07-10T08:37:23.143Z,74.37
2018-07-10T08:39:56.654Z,74.07
2018-07-10T08:42:30.124Z,74.08
2018-07-10T08:45:04.723Z,73.90
2018-07-10T08:47:38.953Z,73.96
2018-07-10T08:50:12.499Z,73.84
2018-07-10T08:52:45.967Z,74.04
2018-07-10T08:55:19.468Z,73.60
2018-07-10T08:57:52.909Z,73.99
2018-07-10T09:00:26.354Z,73.19
2018-07-10T09:03:00.198Z,73.25
2018-07-10T09:05:33.644Z,73.06
2018-07-10T09:08:07.178Z,73.08
2018-07-10T09:10:40.907Z,73.01
2018-07-10T09:13:14.391Z,73.18
2018-07-10T09:15:47.836Z,73.51
2018-07-10T09:18:21.284Z,73.53
2018-07-10T09:20:54.733Z,74.02
2018-07-10T09:23:28.267Z,74.09
2018-07-10T09:26:02.023Z,73.13
2018-07-10T09:28:38.259Z,73.89
2018-07-10T09:31:11.773Z,74.21
2018-07-10T09:33:45.340Z,74.29
2018-07-10T09:36:18.830Z,74.22
2018-07-10T09:38:52.302Z,74.10
2018-07-10T09:41:26.248Z,73.58
2018-07-10T09:43:59.782Z,73.75
2018-07-10T09:46:33.250Z,73.78
2018-07-10T09:49:06.776Z,73.79
2018-07-10T09:51:41.795Z,73.64
2018-07-10T09:54:15.252Z,73.52
2018-07-10T09:56:48.646Z,73.28
2018-07-10T09:59:22.100Z,73.42
2018-07-10T10:02:00.494Z,73.15
2018-07-10T10:04:34.663Z,73.40
2018-07-10T10:07:08.088Z,73.42
2018-07-10T10:09:41.533Z,72.65
2018-07-10T10:12:14.949Z,73.19
2018-07-10T10:14:48.572Z,73.41
2018-07-10T10:17:23.340Z,73.44
2018-07-10T10:19:58.415Z,73.05
2018-07-10T10:22:32.713Z,73.37
2018-07-10T10:25:06.180Z,74.03
2018-07-10T10:27:41.798Z,74.62
2018-07-10T10:30:15.235Z,72.10
2018-07-10T10:32:48.656Z,73.52
2018-07-10T10:35:22.109Z,73.61
2018-07-10T10:37:55.544Z,69.90
2018-07-10T10:40:30.473Z,72.45
2018-07-10T10:43:06.964Z,71.49
2018-07-10T10:45:44.252Z,72.30
2018-07-10T10:48:18.511Z,71.29
2018-07-10T10:50:52.478Z,71.79
2018-07-10T10:53:25.891Z,72.18
2018-07-10T10:55:59.349Z,72.67
2018-07-10T10:58:32.751Z,71.59
2018-07-10T11:01:06.209Z,71.88
2018-07-10T11:03:39.625Z,72.34
2018-07-10T11:06:13.102Z,72.67
2018-07-10T11:08:46.557Z,72.26
2018-07-10T11:11:20.651Z,72.14
2018-07-10T11:13:54.228Z,72.27
2018-07-10T11:16:27.674Z,72.51
2018-07-10T11:19:07.759Z,72.67
2018-07-10T11:22:04.263Z,72.70
2018-07-10T11:24:43.015Z,72.36
2018-07-10T11:27:24.726Z,72.53
2018-07-10T11:29:58.173Z,72.31
2018-07-10T11:32:31.661Z,72.50
2018-07-10T11:35:05.059Z,72.89
2018-07-10T11:37:38.634Z,72.24
2018-07-10T11:40:13.291Z,72.55
2018-07-10T11:42:46.707Z,72.31
2018-07-10T11:45:20.132Z,72.35
2018-07-10T11:47:53.568Z,72.67
2018-07-10T11:50:27.015Z,72.76
2018-07-10T11:53:00.451Z,72.43
2018-07-10T11:55:34.917Z,72.88
2018-07-10T11:58:08.876Z,72.51
2018-07-10T12:00:42.324Z,72.24
2018-07-10T12:03:15.784Z,72.45
2018-07-10T12:05:49.256Z,72.14
2018-07-10T12:08:22.704Z,72.26
2018-07-10T12:11:14.955Z,71.65
2018-07-10T12:13:48.583Z,71.48
2018-07-10T12:16:22.079Z,71.28
2018-07-10T12:18:55.495Z,71.80
2018-07-10T12:21:28.925Z,71.84
2018-07-10T12:24:02.331Z,72.45
2018-07-10T12:26:36.057Z,72.38
2018-07-10T12:29:09.491Z,71.59
2018-07-10T12:31:42.948Z,72.57
2018-07-10T12:34:16.387Z,72.15
2018-07-10T12:36:49.847Z,72.09
2018-07-10T12:39:23.287Z,72.73
2018-07-10T12:41:56.758Z,72.74
2018-07-10T12:44:30.195Z,72.55
2018-07-10T12:47:03.695Z,72.39
2018-07-10T12:49:37.119Z,72.11
2018-07-10T12:52:10.615Z,71.55
2018-07-10T12:54:44.042Z,71.61
2018-07-10T12:57:17.507Z,71.02
2018-07-10T12:59:51.024Z,71.98
2018-07-10T13:02:25.397Z,70.68
2018-07-10T13:04:58.910Z,71.52
2018-07-10T13:07:33.334Z,71.30
2018-07-10T13:10:06.783Z,70.73
2018-07-10T13:12:40.384Z,71.37
2018-07-10T13:15:14.041Z,71.20
2018-07-10T13:17:50.147Z,70.75
2018-07-10T13:20:23.573Z,71.51
2018-07-10T13:22:57.018Z,71.93
2018-07-10T13:25:30.420Z,72.21
2018-07-10T13:28:03.939Z,72.43
2018-07-10T13:30:37.376Z,72.07
2018-07-10T13:33:10.852Z,72.01
2018-07-10T13:35:44.493Z,72.10
2018-07-10T13:38:21.167Z,71.82
2018-07-10T13:40:54.631Z,71.52
2018-07-10T13:43:28.109Z,71.63
2018-07-10T13:46:01.499Z,71.55
2018-07-10T13:48:34.931Z,71.49
2018-07-10T13:51:08.332Z,71.34
2018-07-10T13:53:42.087Z,71.23
2018-07-10T13:56:15.567Z,71.15
2018-07-10T13:58:49.051Z,71.51
2018-07-10T14:01:22.472Z,71.04
2018-07-10T14:03:55.925Z,70.58
2018-07-10T14:06:29.331Z,70.84
2018-07-10T14:09:02.824Z,70.90
2018-07-10T14:11:36.239Z,70.68
2018-07-10T14:14:09.669Z,70.87
2018-07-10T14:16:43.129Z,71.04
2018-07-10T14:19:16.578Z,71.41
2018-07-10T14:21:50.031Z,70.89
2018-07-10T14:24:23.500Z,71.01
2018-07-10T14:26:56.940Z,70.90
2018-07-10T14:29:30.362Z,70.81
2018-07-10T14:32:03.772Z,70.60
2018-07-10T14:34:37.216Z,70.83
2018-07-10T14:37:10.669Z,70.64
2018-07-10T14:39:44.618Z,70.85
2018-07-10T14:42:19.145Z,70.57
2018-07-10T14:44:52.612Z,70.86
2018-07-10T14:47:26.080Z,71.02
2018-07-10T14:49:59.527Z,69.73
2018-07-10T14:52:33.077Z,70.20
2018-07-10T14:55:06.543Z,69.77
2018-07-10T14:57:40.007Z,69.95
2018-07-10T15:00:13.695Z,69.86
2018-07-10T15:02:47.153Z,68.45
2018-07-10T15:05:20.620Z,67.87
2018-07-10T15:07:54.023Z,69.38
2018-07-10T15:10:27.465Z,68.27
2018-07-10T15:13:00.887Z,69.72
2018-07-10T15:15:34.378Z,70.09
2018-07-10T15:18:15.073Z,70.10
2018-07-10T15:20:48.456Z,69.81
2018-07-10T15:23:22.298Z,69.70
2018-07-10T15:25:55.660Z,69.67
2018-07-10T15:28:29.154Z,68.10
2018-07-10T15:31:02.573Z,69.46
2018-07-10T15:33:36.003Z,68.16
2018-07-10T15:36:09.397Z,69.03
2018-07-10T15:38:43.520Z,67.49
2018-07-10T15:41:17.070Z,67.21
2018-07-10T15:43:50.529Z,66.90
2018-07-10T15:46:23.926Z,67.97
2018-07-10T15:48:57.354Z,67.45
2018-07-10T15:51:30.772Z,67.99
2018-07-10T15:54:04.407Z,66.14
2018-07-10T15:56:37.814Z,66.79
2018-07-10T15:59:11.347Z,67.78
2018-07-10T16:01:44.987Z,65.90
2018-07-10T16:04:18.404Z,67.07
2018-07-10T16:06:52.110Z,67.72
2018-07-10T16:09:25.584Z,66.40
2018-07-10T16:12:03.197Z,66.35
2018-07-10T16:14:38.595Z,66.27
2018-07-10T16:17:19.560Z,66.30
2018-07-10T16:19:59.143Z,65.86
2018-07-10T16:22:34.963Z,66.87
2018-07-10T16:25:28.461Z,66.26
2018-07-10T16:28:08.120Z,62.93
2018-07-10T16:30:41.724Z,64.79
2018-07-10T16:33:27.506Z,63.78
2018-07-10T16:36:02.250Z,63.70
2018-07-10T16:38:36.025Z,63.40
2018-07-10T16:41:16.288Z,63.84
2018-07-10T16:43:49.731Z,62.75
2018-07-10T16:46:25.824Z,62.57
2018-07-10T16:49:04.107Z,59.91
2018-07-10T16:52:45.633Z,62.96
2018-07-10T16:55:19.326Z,63.00
2018-07-10T16:57:52.792Z,63.07
2018-07-10T17:00:27.911Z,63.84
2018-07-10T17:03:01.323Z,62.02
2018-07-10T17:05:34.756Z,62.60
2018-07-10T17:08:08.166Z,63.01
2018-07-10T17:10:41.616Z,63.83
2018-07-10T17:13:15.057Z,64.07
2018-07-10T17:15:48.520Z,64.16
2018-07-10T17:18:22.232Z,63.59
2018-07-10T17:20:55.672Z,63.86
2018-07-10T17:23:29.098Z,64.16
2018-07-10T17:26:02.587Z,64.25
2018-07-10T17:28:36.043Z,64.33
2018-07-10T17:31:09.471Z,65.20
2018-07-10T17:33:43.075Z,65.29
2018-07-10T17:36:16.837Z,65.76
2018-07-10T17:38:50.393Z,65.99
2018-07-10T17:41:23.903Z,66.27
2018-07-10T17:43:57.436Z,66.17
2018-07-10T17:46:31.746Z,66.01
2018-07-10T17:49:05.452Z,66.32
2018-07-10T17:51:38.903Z,66.42
2018-07-10T17:54:19.657Z,66.98
2018-07-10T17:56:55.178Z,66.40
2018-07-10T17:59:28.620Z,66.73
2018-07-10T18:02:02.177Z,66.53
2018-07-10T18:04:35.728Z,67.30
2018-07-10T18:07:09.165Z,67.45
2018-07-10T18:09:42.576Z,67.11
2018-07-10T18:12:16.061Z,67.16
2018-07-10T18:14:49.792Z,68.02
2018-07-10T18:17:23.256Z,68.09
2018-07-10T18:19:56.708Z,68.21
2018-07-10T18:22:30.159Z,68.31
2018-07-10T18:25:03.596Z,68.25
2018-07-10T18:27:37.027Z,68.25
2018-07-10T18:30:10.717Z,68.51
2018-07-10T18:32:44.106Z,68.45
2018-07-10T18:35:17.522Z,68.76
2018-07-10T18:37:50.966Z,68.77
2018-07-10T18:40:24.382Z,68.92
2018-07-10T18:42:58.055Z,68.73
2018-07-10T18:45:31.478Z,68.50
2018-07-10T18:48:05.144Z,68.58
2018-07-10T18:50:38.592Z,68.67
2018-07-10T18:53:12.047Z,68.71
2018-07-10T18:55:46.004Z,68.62
2018-07-10T18:58:30.859Z,68.29
2018-07-10T19:01:15.300Z,68.73
2018-07-10T19:03:49.277Z,68.74
2018-07-10T19:06:23.941Z,68.72
2018-07-10T19:08:57.377Z,68.52
2018-07-10T19:11:30.827Z,68.55
2018-07-10T19:14:04.260Z,68.46
2018-07-10T19:16:38.715Z,68.40
2018-07-10T19:19:12.192Z,68.97
2018-07-10T19:21:50.755Z,68.77
2018-07-10T19:24:25.737Z,68.85
2018-07-10T19:27:00.272Z,69.22
2018-07-10T19:29:47.242Z,68.94
2018-07-10T19:32:20.721Z,68.86
2018-07-10T19:34:56.867Z,68.90
2018-07-10T19:37:32.471Z,69.12
2018-07-10T19:40:06.016Z,68.80
2018-07-10T19:42:40.512Z,68.72
2018-07-10T19:45:14.051Z,68.65
2018-07-10T19:47:48.469Z,68.70
2018-07-10T19:50:23.675Z,68.43
2018-07-10T19:52:57.117Z,68.07
2018-07-10T19:55:30.703Z,68.04
2018-07-10T19:59:09.719Z,67.82
2018-07-10T20:01:46.691Z,68.23
2018-07-10T20:04:27.320Z,68.28
2018-07-10T20:07:11.269Z,67.91
2018-07-10T20:09:57.976Z,68.03
2018-07-10T20:12:37.717Z,68.22
2018-07-10T20:15:50.263Z,68.46
2018-07-10T20:18:43.342Z,67.81
2018-07-10T20:21:24.024Z,68.60
2018-07-10T20:24:04.207Z,68.10
2018-07-10T20:26:43.710Z,68.09
2018-07-10T20:29:30.253Z,67.79
2018-07-10T20:32:06.812Z,68.37
2018-07-10T20:34:48.092Z,68.33
2018-07-10T20:37:25.968Z,67.79
2018-07-10T20:40:00.036Z,68.42
2018-07-10T20:42:39.916Z,68.76
2018-07-10T20:45:13.453Z,68.57
2018-07-10T20:47:50.490Z,68.97
2018-07-10T20:50:34.847Z,68.66
2018-07-10T20:53:48.691Z,68.37
2018-07-10T20:56:39.858Z,68.19
2018-07-10T20:59:20.622Z,67.97
2018-07-10T21:01:59.656Z,68.09
2018-07-10T21:04:39.956Z,68.33
2018-07-10T21:07:20.050Z,67.83
2018-07-10T21:10:10.273Z,68.17
2018-07-10T21:12:58.436Z,68.12
2018-07-10T21:16:47.903Z,68.21
2018-07-10T21:22:38.160Z,68.44
2018-07-10T21:25:33.158Z,68.26
2018-07-10T21:28:21.578Z,68.61
2018-07-10T21:30:58.115Z,68.57
2018-07-10T21:33:44.454Z,68.50
2018-07-10T21:36:23.089Z,68.91
2018-07-10T21:39:07.275Z,68.62
2018-07-10T21:41:56.874Z,68.84
2018-07-10T21:44:40.196Z,68.73
2018-07-10T21:49:27.119Z,68.92
2018-07-10T21:52:00.588Z,68.43
2018-07-10T21:54:34.007Z,68.58
2018-07-10T21:57:07.486Z,69.05
2018-07-10T21:59:48.033Z,68.85
2018-07-10T22:02:21.536Z,68.82
2018-07-10T22:04:58.293Z,68.99
2018-07-10T22:07:32.992Z,69.20
2018-07-10T22:10:08.954Z,68.77
2018-07-10T22:12:48.591Z,68.64
2018-07-10T22:15:23.235Z,69.04
2018-07-10T22:17:58.296Z,68.47
2018-07-10T22:20:32.948Z,68.87
2018-07-10T22:23:07.630Z,68.69
2018-07-10T22:25:42.200Z,68.59
2018-07-10T22:28:16.555Z,68.67
2018-07-10T22:30:56.486Z,68.89
2018-07-10T22:33:31.729Z,68.69
2018-07-10T22:36:06.531Z,68.83
2018-07-10T22:38:41.624Z,69.15
2018-07-10T22:41:24.994Z,68.89
2018-07-10T22:44:01.541Z,68.74
2018-07-10T22:46:36.906Z,68.91
2018-07-10T22:49:13.001Z,68.50
2018-07-10T22:51:47.392Z,68.44
2018-07-10T22:54:22.606Z,68.67
2018-07-10T22:56:57.413Z,68.50
2018-07-10T22:59:32.517Z,68.94
2018-07-10T23:02:07.606Z,68.87
2018-07-10T23:04:42.179Z,68.87
2018-07-10T23:07:16.808Z,69.19
2018-07-10T23:09:51.644Z,69.28
2018-07-10T23:12:25.977Z,69.13
2018-07-10T23:15:00.626Z,69.21
2018-07-10T23:17:34.900Z,69.23
2018-07-10T23:20:09.457Z,69.17
2018-07-10T23:22:55.873Z,69.21
2018-07-10T23:25:30.571Z,69.33
2018-07-10T23:28:07.565Z,69.49
2018-07-10T23:30:44.696Z,69.72
2018-07-10T23:33:20.643Z,69.32
2018-07-10T23:35:59.885Z,69.29
2018-07-10T23:38:44.659Z,69.68
2018-07-10T23:41:27.185Z,69.59
2018-07-10T23:44:01.920Z,69.74
2018-07-10T23:46:45.750Z,69.51
2018-07-10T23:49:20.947Z,69.60
2018-07-10T23:52:06.765Z,69.32
2018-07-10T23:54:41.120Z,69.64
2018-07-10T23:57:15.926Z,69.69
2018-07-10T23:59:50.578Z,69.81
